Time;durP1;ratioP1;P1;durP2;ratioP2;P2;SDS_P1;SDS_P2;PMS_P1;PMS_P2;Temp;Humidity;BMP_temperature;BMP_pressure;BME280_temperature;BME280_humidity;BME280_pressure;Samples;Min_cycle;Max_cycle;Signal;HPM_P1;HPM_P2
2023/08/13 00:02:00;;;;;;;6.23;3.30;;;;;;;;;;5078280;28;20279;-66
2023/08/13 00:04:26;;;;;;;7.10;3.28;;;;;;;;;;5077457;28;20637;-66
2023/08/13 00:06:51;;;;;;;5.78;3.05;;;;;;;;;;5074645;28;20408;-66
2023/08/13 00:09:16;;;;;;;7.15;3.42;;;;;;;;;;5075138;28;20020;-66
2023/08/13 00:11:41;;;;;;;8.45;2.95;;;;;;;;;;5073107;28;20028;-66
2023/08/13 00:14:07;;;;;;;6.82;3.47;;;;;;;;;;5073333;28;20021;-66
2023/08/13 00:16:32;;;;;;;6.03;3.20;;;;;;;;;;5073016;28;20025;-66
2023/08/13 00:18:57;;;;;;;4.30;2.85;;;;;;;;;;5072567;28;20032;-67
2023/08/13 00:21:22;;;;;;;7.00;3.37;;;;;;;;;;5084192;28;20023;-66
2023/08/13 00:23:48;;;;;;;6.68;3.67;;;;;;;;;;5074769;28;20267;-66
2023/08/13 00:26:13;;;;;;;7.25;3.50;;;;;;;;;;5079973;28;20108;-66
2023/08/13 00:28:39;;;;;;;5.63;3.17;;;;;;;;;;5077697;28;20031;-66
2023/08/13 00:31:04;;;;;;;5.80;3.22;;;;;;;;;;5081890;28;20344;-66
2023/08/13 00:33:30;;;;;;;8.98;3.80;;;;;;;;;;5072592;28;20020;-66
2023/08/13 00:35:55;;;;;;;6.65;3.28;;;;;;;;;;5084686;28;20471;-66
2023/08/13 00:38:20;;;;;;;6.20;3.63;;;;;;;;;;5084250;28;20483;-66
2023/08/13 00:40:46;;;;;;;6.70;3.57;;;;;;;;;;5081904;28;20467;-65
2023/08/13 00:43:11;;;;;;;5.82;3.63;;;;;;;;;;5081622;28;20282;-65
2023/08/13 00:45:37;;;;;;;6.60;3.30;;;;;;;;;;5080304;28;20439;-66
2023/08/13 00:48:04;;;;;;;7.57;3.50;;;;;;;;;;5076481;28;20039;-66
2023/08/13 00:50:29;;;;;;;8.93;3.70;;;;;;;;;;5083353;28;20095;-66
2023/08/13 00:52:54;;;;;;;7.68;3.42;;;;;;;;;;5084645;28;20150;-65
2023/08/13 00:55:20;;;;;;;6.20;3.38;;;;;;;;;;5080197;28;20394;-66
2023/08/13 00:57:45;;;;;;;5.60;2.90;;;;;;;;;;5089821;28;20051;-66
2023/08/13 01:00:11;;;;;;;7.22;3.13;;;;;;;;;;5089985;28;20161;-66
2023/08/13 01:02:36;;;;;;;9.00;2.92;;;;;;;;;;5088896;28;20462;-66
2023/08/13 01:05:03;;;;;;;6.10;3.17;;;;;;;;;;5091569;28;20032;-66
2023/08/13 01:07:29;;;;;;;4.97;2.85;;;;;;;;;;5089356;28;20028;-66
2023/08/13 01:10:06;;;;;;;6.43;3.30;;;;;;;;;;5082753;28;20028;-66
2023/08/13 01:12:31;;;;;;;8.18;3.50;;;;;;;;;;5074226;28;20279;-66
2023/08/13 01:15:18;;;;;;;9.27;3.50;;;;;;;;;;5078941;28;20499;-66
2023/08/13 01:17:44;;;;;;;7.15;3.38;;;;;;;;;;5072394;28;20016;-66
2023/08/13 01:20:10;;;;;;;6.95;3.42;;;;;;;;;;5085108;28;20107;-66
2023/08/13 01:22:44;;;;;;;10.80;3.40;;;;;;;;;;5072366;28;20249;-66
2023/08/13 01:25:11;;;;;;;;;;;;;;;;;;5071949;28;20109;-66
2023/08/13 01:27:44;;;;;;;8.20;3.38;;;;;;;;;;5079572;28;19912;-66
2023/08/13 01:30:28;;;;;;;6.70;3.38;;;;;;;;;;5088871;28;20168;-66
2023/08/13 01:32:56;;;;;;;6.93;3.43;;;;;;;;;;5072325;28;20028;-66
2023/08/13 01:35:22;;;;;;;7.57;3.60;;;;;;;;;;5080072;28;20412;-66
2023/08/13 01:37:48;;;;;;;8.32;3.78;;;;;;;;;;5073642;28;20103;-66
2023/08/13 01:40:16;;;;;;;6.82;3.72;;;;;;;;;;5080768;28;20028;-66
2023/08/13 01:42:41;;;;;;;7.05;4.00;;;;;;;;;;5076304;28;20039;-65
2023/08/13 01:45:07;;;;;;;7.20;4.13;;;;;;;;;;5079472;28;20028;-65
2023/08/13 01:47:32;;;;;;;7.68;4.65;;;;;;;;;;5071113;28;20479;-66
2023/08/13 01:49:57;;;;;;;12.10;4.72;;;;;;;;;;5076485;28;20025;-65
2023/08/13 01:52:22;;;;;;;7.13;4.95;;;;;;;;;;5071548;28;20387;-66
2023/08/13 01:54:48;;;;;;;9.67;4.80;;;;;;;;;;5075169;28;20040;-66
2023/08/13 01:57:13;;;;;;;9.00;4.88;;;;;;;;;;5079853;28;20272;-66
2023/08/13 01:59:38;;;;;;;13.23;4.53;;;;;;;;;;5089085;28;20042;-66
2023/08/13 02:02:03;;;;;;;6.88;4.30;;;;;;;;;;5082585;28;20400;-66
2023/08/13 02:04:29;;;;;;;7.97;4.07;;;;;;;;;;5083434;28;20032;-66
2023/08/13 02:06:54;;;;;;;7.78;3.58;;;;;;;;;;5072577;28;20266;-66
2023/08/13 02:09:22;;;;;;;6.20;4.30;;;;;;;;;;5085670;28;20513;-66
2023/08/13 02:11:47;;;;;;;7.68;3.78;;;;;;;;;;5076144;28;20058;-66
2023/08/13 02:14:13;;;;;;;10.35;4.90;;;;;;;;;;5090184;28;20051;-66
2023/08/13 02:16:38;;;;;;;7.70;4.10;;;;;;;;;;5090269;28;20039;-66
2023/08/13 02:19:03;;;;;;;8.52;3.85;;;;;;;;;;5081409;28;20036;-66
2023/08/13 02:21:28;;;;;;;8.30;4.32;;;;;;;;;;5074226;28;20454;-67
2023/08/13 02:23:54;;;;;;;8.17;4.80;;;;;;;;;;5070390;28;20135;-66
2023/08/13 02:26:19;;;;;;;12.68;4.00;;;;;;;;;;5072576;28;20633;-66
2023/08/13 02:28:45;;;;;;;6.90;4.10;;;;;;;;;;5069937;28;20027;-66
2023/08/13 02:31:10;;;;;;;8.48;4.38;;;;;;;;;;5073384;28;20360;-66
2023/08/13 02:33:36;;;;;;;7.20;3.67;;;;;;;;;;5091254;28;20020;-66
2023/08/13 02:36:01;;;;;;;12.47;4.60;;;;;;;;;;5081984;28;20107;-66
2023/08/13 02:38:26;;;;;;;7.05;4.18;;;;;;;;;;5085566;28;20317;-66
2023/08/13 02:40:51;;;;;;;5.87;3.53;;;;;;;;;;5090697;28;20032;-66
2023/08/13 02:43:17;;;;;;;7.75;4.30;;;;;;;;;;5089051;28;20278;-66
2023/08/13 02:45:42;;;;;;;5.40;3.67;;;;;;;;;;5071246;28;20075;-66
2023/08/13 02:48:07;;;;;;;7.70;4.37;;;;;;;;;;5085380;28;20662;-66
2023/08/13 02:50:32;;;;;;;7.55;3.95;;;;;;;;;;5090758;28;20678;-66
2023/08/13 02:52:58;;;;;;;9.40;3.42;;;;;;;;;;5088076;28;20036;-67
2023/08/13 02:55:23;;;;;;;8.63;3.72;;;;;;;;;;5089386;28;20028;-66
2023/08/13 02:57:48;;;;;;;6.43;3.73;;;;;;;;;;5086885;28;20824;-67
2023/08/13 03:00:14;;;;;;;8.05;3.58;;;;;;;;;;5090414;28;20667;-67
2023/08/13 03:02:39;;;;;;;6.97;3.90;;;;;;;;;;5087259;28;20039;-67
2023/08/13 03:05:04;;;;;;;7.47;3.65;;;;;;;;;;5076731;28;20498;-67
2023/08/13 03:07:30;;;;;;;9.40;3.42;;;;;;;;;;5087951;28;20057;-66
2023/08/13 03:09:55;;;;;;;6.38;4.03;;;;;;;;;;5080542;28;20033;-66
2023/08/13 03:12:20;;;;;;;13.75;4.53;;;;;;;;;;5077266;28;20020;-66
2023/08/13 03:14:46;;;;;;;11.97;3.97;;;;;;;;;;5070013;28;20059;-66
2023/08/13 03:17:11;;;;;;;7.60;3.25;;;;;;;;;;5076494;28;20348;-66
2023/08/13 03:19:37;;;;;;;7.35;4.13;;;;;;;;;;5083503;28;20056;-66
2023/08/13 03:22:02;;;;;;;5.70;3.53;;;;;;;;;;5075695;28;20024;-66
2023/08/13 03:24:27;;;;;;;7.72;3.28;;;;;;;;;;5072555;28;20032;-67
2023/08/13 03:26:52;;;;;;;8.50;3.85;;;;;;;;;;5077582;28;20114;-67
2023/08/13 03:29:17;;;;;;;12.23;3.97;;;;;;;;;;5073195;28;20024;-67
2023/08/13 03:31:43;;;;;;;7.45;4.05;;;;;;;;;;5085039;28;20039;-67
2023/08/13 03:34:08;;;;;;;7.97;3.40;;;;;;;;;;5073901;28;20726;-67
2023/08/13 03:36:33;;;;;;;6.77;3.47;;;;;;;;;;5075528;28;20704;-67
2023/08/13 03:38:58;;;;;;;6.68;3.85;;;;;;;;;;5075031;28;20295;-67
2023/08/13 03:41:24;;;;;;;8.10;3.53;;;;;;;;;;5074194;28;20111;-67
2023/08/13 03:43:49;;;;;;;6.60;3.40;;;;;;;;;;5081381;28;20032;-67
2023/08/13 03:46:14;;;;;;;5.77;3.83;;;;;;;;;;5073929;28;20108;-67
2023/08/13 03:48:39;;;;;;;7.95;3.55;;;;;;;;;;5073323;28;20880;-67
2023/08/13 03:51:04;;;;;;;5.47;3.20;;;;;;;;;;5073852;28;20039;-66
2023/08/13 03:53:30;;;;;;;5.25;3.45;;;;;;;;;;5073431;28;20321;-67
2023/08/13 03:55:55;;;;;;;7.80;3.80;;;;;;;;;;5084390;28;20040;-67
2023/08/13 03:58:20;;;;;;;5.80;3.57;;;;;;;;;;5091855;28;20274;-67
2023/08/13 04:00:45;;;;;;;7.40;3.50;;;;;;;;;;5091978;28;20760;-65
2023/08/13 04:03:11;;;;;;;6.87;3.57;;;;;;;;;;5091058;28;20107;-65
2023/08/13 04:05:36;;;;;;;4.60;3.03;;;;;;;;;;5092208;28;20305;-65
2023/08/13 04:08:01;;;;;;;10.50;3.73;;;;;;;;;;5091546;28;20023;-65
2023/08/13 04:10:27;;;;;;;8.00;3.53;;;;;;;;;;5079356;28;20995;-65
2023/08/13 04:12:52;;;;;;;8.10;2.78;;;;;;;;;;5091601;28;20035;-65
2023/08/13 04:15:20;;;;;;;8.90;3.80;;;;;;;;;;5091866;28;20020;-65
2023/08/13 04:17:46;;;;;;;6.07;2.92;;;;;;;;;;5092171;28;20386;-65
2023/08/13 04:20:11;;;;;;;4.80;2.78;;;;;;;;;;5079400;28;20040;-65
2023/08/13 04:22:37;;;;;;;8.15;3.63;;;;;;;;;;5092067;28;20124;-65
2023/08/13 04:25:02;;;;;;;9.52;3.53;;;;;;;;;;5081602;28;20028;-65
2023/08/13 04:27:27;;;;;;;6.30;2.95;;;;;;;;;;5078240;28;20468;-65
2023/08/13 04:29:52;;;;;;;6.78;3.33;;;;;;;;;;5085130;28;20051;-65
2023/08/13 04:32:18;;;;;;;6.95;3.05;;;;;;;;;;5055203;28;20036;-65
2023/08/13 04:34:43;;;;;;;6.50;3.13;;;;;;;;;;5036142;28;20078;-65
2023/08/13 04:37:08;;;;;;;11.73;3.75;;;;;;;;;;5081346;28;20596;-65
2023/08/13 04:39:34;;;;;;;6.53;3.20;;;;;;;;;;5088146;28;20036;-65
2023/08/13 04:42:02;;;;;;;6.88;3.35;;;;;;;;;;5086982;28;20027;-66
2023/08/13 04:44:27;;;;;;;9.57;3.33;;;;;;;;;;5072711;28;20017;-65
2023/08/13 04:46:53;;;;;;;6.00;3.22;;;;;;;;;;5076450;28;20016;-66
2023/08/13 04:49:18;;;;;;;7.50;3.53;;;;;;;;;;5074514;28;20025;-66
2023/08/13 04:51:43;;;;;;;7.93;3.67;;;;;;;;;;5078995;28;20024;-66
2023/08/13 04:54:08;;;;;;;9.27;3.63;;;;;;;;;;5074841;28;20340;-66
2023/08/13 04:56:33;;;;;;;7.93;3.00;;;;;;;;;;5075577;28;20032;-66
2023/08/13 04:58:59;;;;;;;7.65;3.30;;;;;;;;;;5081108;28;20652;-66
2023/08/13 05:01:24;;;;;;;8.70;3.30;;;;;;;;;;5088444;28;20062;-66
2023/08/13 05:03:50;;;;;;;6.63;3.83;;;;;;;;;;5080624;28;20043;-66
2023/08/13 05:06:15;;;;;;;7.78;3.22;;;;;;;;;;5087833;28;20712;-66
2023/08/13 05:08:40;;;;;;;6.20;3.28;;;;;;;;;;5080683;28;20043;-66
2023/08/13 05:11:06;;;;;;;7.90;3.67;;;;;;;;;;5083371;28;20015;-66
2023/08/13 05:13:31;;;;;;;7.10;3.38;;;;;;;;;;5092181;28;20383;-65
2023/08/13 05:15:56;;;;;;;5.97;3.03;;;;;;;;;;5081821;28;20031;-66
2023/08/13 05:18:22;;;;;;;7.65;3.67;;;;;;;;;;5071628;28;20036;-65
2023/08/13 05:20:47;;;;;;;6.15;3.30;;;;;;;;;;5086725;28;20085;-66
2023/08/13 05:23:12;;;;;;;8.63;3.55;;;;;;;;;;5090487;28;20024;-66
2023/08/13 05:25:38;;;;;;;6.90;3.27;;;;;;;;;;5087613;28;20465;-65
2023/08/13 05:28:07;;;;;;;5.80;3.28;;;;;;;;;;5083719;28;20289;-65
2023/08/13 05:30:33;;;;;;;7.97;3.78;;;;;;;;;;5081889;28;20028;-65
2023/08/13 05:32:58;;;;;;;7.80;3.30;;;;;;;;;;5084487;28;20023;-66
2023/08/13 05:35:23;;;;;;;7.88;3.30;;;;;;;;;;5083163;28;20024;-66
2023/08/13 05:37:48;;;;;;;6.00;3.10;;;;;;;;;;5084684;28;20098;-66
2023/08/13 05:40:14;;;;;;;8.57;3.67;;;;;;;;;;5082151;28;20535;-66
2023/08/13 05:42:39;;;;;;;7.75;3.72;;;;;;;;;;5083388;28;20285;-65
2023/08/13 05:45:04;;;;;;;6.80;3.78;;;;;;;;;;5083319;28;20024;-65
2023/08/13 05:47:30;;;;;;;9.80;3.72;;;;;;;;;;5081092;28;20021;-65
2023/08/13 05:49:55;;;;;;;7.03;3.15;;;;;;;;;;5076641;28;20016;-65
2023/08/13 05:52:22;;;;;;;6.57;3.55;;;;;;;;;;5074641;28;20040;-65
2023/08/13 05:54:47;;;;;;;5.85;3.13;;;;;;;;;;5073163;28;20025;-65
2023/08/13 05:57:13;;;;;;;8.82;3.22;;;;;;;;;;5073559;28;20417;-65
2023/08/13 05:59:38;;;;;;;10.90;3.80;;;;;;;;;;5075330;28;20032;-65
2023/08/13 06:02:04;;;;;;;10.60;3.78;;;;;;;;;;5072652;28;20825;-65
2023/08/13 06:04:29;;;;;;;8.73;4.65;;;;;;;;;;5074416;28;20048;-65
2023/08/13 06:06:54;;;;;;;9.45;4.68;;;;;;;;;;5070771;28;20071;-65
2023/08/13 06:09:20;;;;;;;8.95;4.00;;;;;;;;;;5074032;28;20013;-65
2023/08/13 06:11:45;;;;;;;10.18;4.35;;;;;;;;;;5070890;28;20016;-65
2023/08/13 06:14:10;;;;;;;9.20;4.93;;;;;;;;;;5081324;28;20627;-65
2023/08/13 06:16:35;;;;;;;9.32;4.93;;;;;;;;;;5070707;28;20024;-65
2023/08/13 06:19:01;;;;;;;9.32;4.43;;;;;;;;;;5087851;28;20036;-65
2023/08/13 06:21:26;;;;;;;12.40;5.07;;;;;;;;;;5082109;28;20559;-65
2023/08/13 06:23:52;;;;;;;11.20;4.82;;;;;;;;;;5073900;28;20032;-65
2023/08/13 06:26:17;;;;;;;7.72;4.38;;;;;;;;;;5083190;28;20411;-65
2023/08/13 06:28:42;;;;;;;6.70;4.18;;;;;;;;;;5082009;28;20031;-65
2023/08/13 06:31:08;;;;;;;7.85;4.68;;;;;;;;;;5083001;28;20043;-65
2023/08/13 06:33:34;;;;;;;8.32;4.28;;;;;;;;;;5082717;28;20475;-65
2023/08/13 06:35:59;;;;;;;7.60;4.22;;;;;;;;;;5071092;28;20027;-65
2023/08/13 06:38:26;;;;;;;10.18;4.10;;;;;;;;;;5079989;28;20034;-65
2023/08/13 06:40:51;;;;;;;6.80;4.55;;;;;;;;;;5072490;28;20024;-65
2023/08/13 06:43:16;;;;;;;10.77;4.55;;;;;;;;;;5079398;28;20020;-65
2023/08/13 06:45:41;;;;;;;10.82;4.15;;;;;;;;;;5075715;28;20074;-65
2023/08/13 06:48:07;;;;;;;12.20;4.03;;;;;;;;;;5079527;28;20032;-65
2023/08/13 06:50:33;;;;;;;8.40;3.80;;;;;;;;;;5071828;28;20020;-65
2023/08/13 06:52:58;;;;;;;7.85;3.65;;;;;;;;;;5078872;28;20028;-65
2023/08/13 06:55:23;;;;;;;7.13;4.03;;;;;;;;;;5072576;28;20023;-65
2023/08/13 06:57:49;;;;;;;6.72;3.15;;;;;;;;;;5073465;28;20266;-66
2023/08/13 07:00:15;;;;;;;11.35;3.15;;;;;;;;;;5080848;28;20123;-65
2023/08/13 07:02:40;;;;;;;7.72;3.13;;;;;;;;;;5081805;28;20119;-65
2023/08/13 07:05:06;;;;;;;7.75;3.45;;;;;;;;;;5091787;28;20454;-65
2023/08/13 07:07:33;;;;;;;5.80;3.05;;;;;;;;;;5092796;28;20506;-65
2023/08/13 07:09:58;;;;;;;7.53;3.22;;;;;;;;;;5080522;28;20111;-65
2023/08/13 07:12:24;;;;;;;7.55;2.63;;;;;;;;;;5074580;28;20112;-65
2023/08/13 07:14:50;;;;;;;11.88;2.78;;;;;;;;;;5089972;28;20122;-65
2023/08/13 07:17:15;;;;;;;7.82;2.72;;;;;;;;;;5093268;28;20450;-65
2023/08/13 07:19:41;;;;;;;6.27;2.57;;;;;;;;;;5090242;28;20028;-65
2023/08/13 07:22:06;;;;;;;8.43;2.88;;;;;;;;;;5091481;28;20370;-65
2023/08/13 07:24:31;;;;;;;7.43;3.27;;;;;;;;;;5091822;28;20406;-65
2023/08/13 07:26:56;;;;;;;5.50;2.93;;;;;;;;;;5090003;28;20293;-65
2023/08/13 07:29:21;;;;;;;8.20;3.03;;;;;;;;;;5089578;28;20343;-66
2023/08/13 07:31:47;;;;;;;8.37;2.40;;;;;;;;;;5090040;28;20285;-65
2023/08/13 07:34:12;;;;;;;9.32;2.63;;;;;;;;;;5089068;28;20760;-65
2023/08/13 07:36:37;;;;;;;5.50;2.33;;;;;;;;;;5089591;28;20110;-64
2023/08/13 07:39:02;;;;;;;4.85;2.63;;;;;;;;;;5090238;28;20301;-65
2023/08/13 07:41:28;;;;;;;4.13;2.17;;;;;;;;;;5089808;28;20035;-65
2023/08/13 07:43:54;;;;;;;6.57;2.10;;;;;;;;;;5089490;28;20356;-65
2023/08/13 07:46:20;;;;;;;8.38;2.88;;;;;;;;;;5081511;28;20278;-65
2023/08/13 07:48:45;;;;;;;5.47;2.37;;;;;;;;;;5076925;28;20386;-65
2023/08/13 07:51:10;;;;;;;6.85;2.80;;;;;;;;;;5087733;28;20306;-65
2023/08/13 07:53:35;;;;;;;5.57;2.67;;;;;;;;;;5086691;28;20066;-65
2023/08/13 07:56:01;;;;;;;10.48;3.05;;;;;;;;;;5092411;28;20278;-65
2023/08/13 07:58:26;;;;;;;6.90;2.33;;;;;;;;;;5090172;28;20141;-65
2023/08/13 08:00:51;;;;;;;8.07;2.80;;;;;;;;;;5089304;28;20357;-65
2023/08/13 08:03:17;;;;;;;5.38;2.42;;;;;;;;;;5091472;28;20024;-65
2023/08/13 08:05:42;;;;;;;6.15;2.72;;;;;;;;;;5089396;28;20023;-65
2023/08/13 08:08:08;;;;;;;5.78;2.40;;;;;;;;;;5088338;28;20043;-65
2023/08/13 08:10:33;;;;;;;7.78;2.00;;;;;;;;;;5079971;28;20154;-65
2023/08/13 08:12:58;;;;;;;5.95;2.58;;;;;;;;;;5078837;28;20036;-65
2023/08/13 08:15:24;;;;;;;8.00;2.85;;;;;;;;;;5084766;28;20020;-65
2023/08/13 08:17:49;;;;;;;5.68;2.60;;;;;;;;;;5078308;28;20025;-65
2023/08/13 08:20:14;;;;;;;7.07;3.27;;;;;;;;;;5085742;28;20024;-65
2023/08/13 08:22:39;;;;;;;6.90;3.03;;;;;;;;;;5087820;28;20281;-65
2023/08/13 08:25:08;;;;;;;5.20;2.53;;;;;;;;;;5088619;28;20052;-65
2023/08/13 08:27:34;;;;;;;7.05;2.92;;;;;;;;;;5087933;28;20027;-65
2023/08/13 08:29:59;;;;;;;4.90;2.55;;;;;;;;;;5087768;28;20501;-65
2023/08/13 08:32:24;;;;;;;5.90;2.97;;;;;;;;;;5082245;28;20070;-65
2023/08/13 08:34:50;;;;;;;9.98;2.75;;;;;;;;;;5085218;28;20123;-65
2023/08/13 08:37:15;;;;;;;5.90;2.85;;;;;;;;;;5083169;28;20378;-65
2023/08/13 08:39:41;;;;;;;4.43;2.42;;;;;;;;;;5085835;28;20035;-66
2023/08/13 08:42:07;;;;;;;5.40;2.55;;;;;;;;;;5082226;28;20028;-65
2023/08/13 08:44:33;;;;;;;6.47;2.88;;;;;;;;;;5085858;28;20020;-65
2023/08/13 08:46:59;;;;;;;7.60;2.33;;;;;;;;;;5088244;28;20105;-65
2023/08/13 08:49:25;;;;;;;5.40;2.58;;;;;;;;;;5086298;28;20062;-65
2023/08/13 08:51:50;;;;;;;5.47;3.08;;;;;;;;;;5085914;28;20028;-65
2023/08/13 08:54:17;;;;;;;6.40;2.95;;;;;;;;;;5085781;28;20088;-65
2023/08/13 08:56:42;;;;;;;8.07;2.60;;;;;;;;;;5065151;28;20039;-65
2023/08/13 08:59:08;;;;;;;5.65;3.03;;;;;;;;;;5041397;28;20135;-65
2023/08/13 09:01:33;;;;;;;7.35;3.50;;;;;;;;;;5038755;28;20091;-65
2023/08/13 09:03:59;;;;;;;9.60;2.58;;;;;;;;;;5062034;28;20537;-65
2023/08/13 09:06:44;;;;;;;8.10;3.15;;;;;;;;;;5085837;28;20034;-65
2023/08/13 09:09:09;;;;;;;8.05;2.85;;;;;;;;;;5072679;28;20048;-65
2023/08/13 09:11:34;;;;;;;7.63;2.97;;;;;;;;;;5079272;28;20048;-65
2023/08/13 09:14:01;;;;;;;6.67;2.77;;;;;;;;;;5084753;28;20327;-65
2023/08/13 09:16:27;;;;;;;4.68;2.25;;;;;;;;;;5077198;28;20332;-65
2023/08/13 09:18:52;;;;;;;6.60;2.38;;;;;;;;;;5077751;28;20036;-65
2023/08/13 09:21:23;;;;;;;6.00;2.30;;;;;;;;;;5076098;28;20020;-65
2023/08/13 09:23:48;;;;;;;6.28;2.33;;;;;;;;;;5080441;28;20524;-65
2023/08/13 09:26:14;;;;;;;6.38;2.83;;;;;;;;;;5084450;28;20020;-65
2023/08/13 09:28:43;;;;;;;6.40;2.05;;;;;;;;;;5076541;28;20021;-65
2023/08/13 09:31:08;;;;;;;4.82;1.83;;;;;;;;;;5074596;28;20120;-64
2023/08/13 09:33:33;;;;;;;4.68;2.13;;;;;;;;;;5078235;28;20447;-65
2023/08/13 09:35:59;;;;;;;4.93;2.10;;;;;;;;;;5075485;28;20082;-65
2023/08/13 09:38:24;;;;;;;5.05;1.70;;;;;;;;;;5088319;28;20284;-65
2023/08/13 09:40:50;;;;;;;6.32;1.65;;;;;;;;;;5076944;28;20016;-65
2023/08/13 09:43:19;;;;;;;5.43;2.33;;;;;;;;;;5090174;28;20378;-65
2023/08/13 09:45:46;;;;;;;5.78;2.33;;;;;;;;;;5089311;28;20471;-65
2023/08/13 09:48:12;;;;;;;5.90;1.75;;;;;;;;;;5079571;28;20036;-65
2023/08/13 09:50:39;;;;;;;7.30;2.45;;;;;;;;;;5088395;28;20297;-65
2023/08/13 09:53:05;;;;;;;7.07;1.88;;;;;;;;;;5091010;28;20505;-65
2023/08/13 09:55:31;;;;;;;6.60;1.95;;;;;;;;;;5080485;28;20039;-65
2023/08/13 09:58:00;;;;;;;5.90;2.17;;;;;;;;;;5075876;28;20564;-65
2023/08/13 10:00:27;;;;;;;7.07;1.88;;;;;;;;;;5076848;28;20052;-65
2023/08/13 10:02:53;;;;;;;6.15;1.92;;;;;;;;;;5078745;28;20514;-65
2023/08/13 10:05:18;;;;;;;5.45;2.20;;;;;;;;;;5078424;28;20036;-65
2023/08/13 10:07:44;;;;;;;3.85;2.00;;;;;;;;;;5087792;28;20031;-65
2023/08/13 10:10:10;;;;;;;5.22;2.13;;;;;;;;;;5071652;28;20031;-65
2023/08/13 10:12:35;;;;;;;6.18;2.42;;;;;;;;;;5087456;28;20028;-65
2023/08/13 10:15:00;;;;;;;6.72;2.15;;;;;;;;;;5079599;28;20481;-65
2023/08/13 10:17:28;;;;;;;4.78;1.65;;;;;;;;;;5084163;28;20094;-65
2023/08/13 10:19:54;;;;;;;5.00;2.38;;;;;;;;;;5079524;28;20059;-65
2023/08/13 10:22:29;;;;;;;4.55;1.63;;;;;;;;;;5077750;28;20024;-65
2023/08/13 10:24:55;;;;;;;4.40;1.58;;;;;;;;;;5071198;28;20029;-65
2023/08/13 10:27:20;;;;;;;3.97;1.58;;;;;;;;;;5072308;28;20074;-65
2023/08/13 10:29:46;;;;;;;6.50;2.30;;;;;;;;;;5071541;28;20090;-65
2023/08/13 10:32:12;;;;;;;6.00;2.10;;;;;;;;;;5084031;28;20073;-65
2023/08/13 10:34:43;;;;;;;7.05;2.40;;;;;;;;;;5069144;28;20271;-65
2023/08/13 10:37:15;;;;;;;7.72;2.03;;;;;;;;;;5081965;28;20025;-65
2023/08/13 10:39:43;;;;;;;4.90;2.00;;;;;;;;;;5071067;28;20155;-65
2023/08/13 10:42:27;;;;;;;6.10;2.15;;;;;;;;;;5080855;28;20082;-65
2023/08/13 10:44:53;;;;;;;5.13;1.40;;;;;;;;;;5071713;28;20020;-65
2023/08/13 10:47:18;;;;;;;4.20;1.77;;;;;;;;;;5079336;28;20270;-65
2023/08/13 10:49:43;;;;;;;5.15;2.00;;;;;;;;;;5071783;28;20020;-65
2023/08/13 10:52:09;;;;;;;4.45;2.00;;;;;;;;;;5077170;28;20040;-65
2023/08/13 10:54:34;;;;;;;4.25;1.90;;;;;;;;;;5071618;28;20036;-65
2023/08/13 10:57:00;;;;;;;3.58;1.80;;;;;;;;;;5075819;28;20036;-65
2023/08/13 10:59:29;;;;;;;4.80;2.05;;;;;;;;;;5071698;28;20036;-65
2023/08/13 11:02:14;;;;;;;4.07;2.00;;;;;;;;;;5073987;28;20444;-65
2023/08/13 11:04:41;;;;;;;3.35;1.95;;;;;;;;;;5072770;28;20032;-65
2023/08/13 11:07:06;;;;;;;8.65;2.63;;;;;;;;;;5072847;28;20029;-65
2023/08/13 11:09:32;;;;;;;5.55;1.70;;;;;;;;;;5081091;28;20027;-65
2023/08/13 11:11:57;;;;;;;4.80;2.10;;;;;;;;;;5080302;28;20524;-65
2023/08/13 11:14:23;;;;;;;7.30;2.38;;;;;;;;;;5073110;28;20044;-65
2023/08/13 11:16:48;;;;;;;6.38;2.22;;;;;;;;;;5079584;28;20516;-65
2023/08/13 11:19:14;;;;;;;6.33;2.30;;;;;;;;;;5073232;28;20047;-65
2023/08/13 11:21:39;;;;;;;5.23;2.30;;;;;;;;;;5078158;28;20647;-65
2023/08/13 11:24:05;;;;;;;6.20;2.20;;;;;;;;;;5073974;28;20275;-65
2023/08/13 11:26:34;;;;;;;3.92;1.50;;;;;;;;;;5076191;28;20390;-66
2023/08/13 11:28:59;;;;;;;5.65;2.03;;;;;;;;;;5089088;28;20020;-65
2023/08/13 11:31:24;;;;;;;5.03;2.37;;;;;;;;;;5088634;28;20387;-65
2023/08/13 11:33:50;;;;;;;5.28;1.73;;;;;;;;;;5087411;28;20417;-65
2023/08/13 11:36:15;;;;;;;2.97;1.53;;;;;;;;;;5089274;28;20463;-65
2023/08/13 11:38:40;;;;;;;4.43;1.75;;;;;;;;;;5084491;28;20432;-65
2023/08/13 11:41:12;;;;;;;3.75;1.85;;;;;;;;;;5079551;28;20475;-65
2023/08/13 11:43:37;;;;;;;4.32;1.80;;;;;;;;;;5087782;28;20074;-65
2023/08/13 11:46:03;;;;;;;9.23;2.00;;;;;;;;;;5089780;28;20028;-66
2023/08/13 11:48:30;;;;;;;5.88;1.92;;;;;;;;;;5089589;28;20361;-65
2023/08/13 11:50:57;;;;;;;6.03;1.80;;;;;;;;;;5091520;28;20031;-65
2023/08/13 11:53:23;;;;;;;11.02;2.15;;;;;;;;;;5088108;28;20398;-65
2023/08/13 11:55:48;;;;;;;4.30;2.05;;;;;;;;;;5091449;28;20024;-66
2023/08/13 11:58:17;;;;;;;3.95;1.70;;;;;;;;;;5091670;28;20042;-65
2023/08/13 12:00:43;;;;;;;5.55;2.22;;;;;;;;;;5091777;28;20035;-65
2023/08/13 12:03:08;;;;;;;4.63;2.15;;;;;;;;;;5090507;28;20470;-65
2023/08/13 12:05:34;;;;;;;4.97;2.40;;;;;;;;;;5091890;28;20037;-65
2023/08/13 12:08:00;;;;;;;4.15;2.08;;;;;;;;;;5091097;28;20262;-66
2023/08/13 12:10:25;;;;;;;5.63;2.22;;;;;;;;;;5090805;28;20019;-65
2023/08/13 12:12:51;;;;;;;4.07;1.90;;;;;;;;;;5091669;28;20035;-66
2023/08/13 12:15:17;;;;;;;4.72;1.80;;;;;;;;;;5093172;28;20032;-65
2023/08/13 12:17:42;;;;;;;5.00;1.70;;;;;;;;;;5093160;28;20103;-65
2023/08/13 12:20:11;;;;;;;3.17;1.30;;;;;;;;;;5093284;28;20119;-65
2023/08/13 12:22:36;;;;;;;3.47;1.30;;;;;;;;;;5088127;28;20278;-65
2023/08/13 12:25:01;;;;;;;10.03;1.47;;;;;;;;;;5084175;28;20108;-65
2023/08/13 12:27:26;;;;;;;3.10;1.33;;;;;;;;;;5091438;28;20028;-65
2023/08/13 12:29:51;;;;;;;3.73;1.10;;;;;;;;;;5082000;28;20306;-65
2023/08/13 12:32:17;;;;;;;3.40;1.37;;;;;;;;;;5077024;28;20029;-65
2023/08/13 12:34:42;;;;;;;2.93;1.17;;;;;;;;;;5068684;28;20765;-65
2023/08/13 12:37:07;;;;;;;3.53;1.60;;;;;;;;;;5079395;28;20289;-65
2023/08/13 12:39:32;;;;;;;3.83;1.10;;;;;;;;;;5078316;28;20051;-65
2023/08/13 12:41:58;;;;;;;3.30;1.30;;;;;;;;;;5074414;28;20822;-66
2023/08/13 12:44:23;;;;;;;3.73;1.40;;;;;;;;;;5072250;28;20281;-66
2023/08/13 12:46:49;;;;;;;3.90;1.30;;;;;;;;;;5075883;28;20035;-66
2023/08/13 12:49:14;;;;;;;2.90;1.05;;;;;;;;;;5081730;28;20016;-66
2023/08/13 12:51:39;;;;;;;11.10;1.67;;;;;;;;;;5075019;28;20029;-66
2023/08/13 12:54:05;;;;;;;3.43;1.10;;;;;;;;;;5080911;28;20051;-65
2023/08/13 12:56:30;;;;;;;3.10;1.20;;;;;;;;;;5072656;28;20033;-65
2023/08/13 12:58:55;;;;;;;3.45;1.30;;;;;;;;;;5080812;28;20036;-66
2023/08/13 13:01:21;;;;;;;3.70;1.45;;;;;;;;;;5080454;28;20066;-65
2023/08/13 13:03:46;;;;;;;6.32;1.23;;;;;;;;;;5081657;28;20025;-65
2023/08/13 13:06:11;;;;;;;3.13;1.35;;;;;;;;;;5073577;28;20124;-67
2023/08/13 13:08:36;;;;;;;2.65;1.20;;;;;;;;;;5080016;28;20532;-66
2023/08/13 13:11:02;;;;;;;3.97;1.57;;;;;;;;;;5074082;28;20025;-66
2023/08/13 13:13:28;;;;;;;3.75;1.60;;;;;;;;;;5082554;28;20327;-66
2023/08/13 13:15:53;;;;;;;3.90;1.50;;;;;;;;;;5085506;28;20078;-65
2023/08/13 13:18:18;;;;;;;3.13;1.67;;;;;;;;;;5086106;28;20089;-65
2023/08/13 13:20:44;;;;;;;3.83;1.47;;;;;;;;;;5083055;28;20033;-66
2023/08/13 13:23:09;;;;;;;3.83;1.50;;;;;;;;;;5091295;28;20081;-66
2023/08/13 13:25:34;;;;;;;5.78;1.80;;;;;;;;;;5091463;28;20020;-66
2023/08/13 13:28:00;;;;;;;2.97;1.35;;;;;;;;;;5089065;28;20020;-67
2023/08/13 13:30:28;;;;;;;6.15;1.70;;;;;;;;;;5079401;28;20111;-65
2023/08/13 13:32:54;;;;;;;4.75;1.10;;;;;;;;;;5075958;28;20029;-64
2023/08/13 13:35:19;;;;;;;3.90;1.10;;;;;;;;;;5078188;28;20023;-65
2023/08/13 13:37:44;;;;;;;5.68;1.70;;;;;;;;;;5089480;28;20115;-66
2023/08/13 13:40:10;;;;;;;5.17;1.57;;;;;;;;;;5083760;28;20029;-65
2023/08/13 13:42:36;;;;;;;5.20;1.40;;;;;;;;;;5087156;28;20012;-64
2023/08/13 13:45:01;;;;;;;4.68;1.58;;;;;;;;;;5082332;28;20039;-63
2023/08/13 13:47:26;;;;;;;5.90;1.10;;;;;;;;;;5082553;28;20023;-64
2023/08/13 13:49:52;;;;;;;3.27;1.30;;;;;;;;;;5085441;28;20028;-64
2023/08/13 13:52:17;;;;;;;4.17;1.37;;;;;;;;;;5085262;28;20319;-64
2023/08/13 13:54:42;;;;;;;3.47;1.30;;;;;;;;;;5079979;28;20739;-65
2023/08/13 13:57:07;;;;;;;3.13;1.57;;;;;;;;;;5074241;28;20024;-66
2023/08/13 13:59:33;;;;;;;3.27;0.97;;;;;;;;;;5077427;28;20312;-65
2023/08/13 14:01:58;;;;;;;3.63;1.20;;;;;;;;;;5072356;28;20115;-65
2023/08/13 14:04:25;;;;;;;3.37;1.27;;;;;;;;;;5077978;28;20459;-65
2023/08/13 14:06:51;;;;;;;2.78;1.13;;;;;;;;;;5074615;28;20281;-65
2023/08/13 14:09:16;;;;;;;3.13;1.27;;;;;;;;;;5076269;28;20028;-64
2023/08/13 14:11:41;;;;;;;2.15;1.20;;;;;;;;;;5071154;28;20044;-66
2023/08/13 14:14:06;;;;;;;6.90;1.17;;;;;;;;;;5074561;28;20064;-65
2023/08/13 14:16:32;;;;;;;2.63;1.03;;;;;;;;;;5091485;28;20266;-65
2023/08/13 14:18:57;;;;;;;2.78;1.20;;;;;;;;;;5077861;28;20293;-65
2023/08/13 14:21:22;;;;;;;2.67;1.07;;;;;;;;;;5072973;28;20017;-65
2023/08/13 14:23:48;;;;;;;3.40;1.30;;;;;;;;;;5079192;28;20332;-65
2023/08/13 14:26:13;;;;;;;3.15;1.02;;;;;;;;;;5073648;28;20633;-65
2023/08/13 14:28:38;;;;;;;2.33;0.88;;;;;;;;;;5073127;28;20036;-65
2023/08/13 14:31:03;;;;;;;2.63;0.90;;;;;;;;;;5074749;28;20043;-65
2023/08/13 14:33:29;;;;;;;3.30;1.20;;;;;;;;;;5088253;28;20355;-65
2023/08/13 14:35:54;;;;;;;1.87;0.87;;;;;;;;;;5076839;28;20266;-66